Time;durP1;ratioP1;P1;durP2;ratioP2;P2;SDS_P1;SDS_P2;PMS_P1;PMS_P2;Temp;Humidity;BMP_temperature;BMP_pressure;BME280_temperature;BME280_humidity;BME280_pressure;Samples;Min_cycle;Max_cycle;Signal;HPM_P1;HPM_P2
2021/04/10 00:01:17;;;;;;;254.23;120.63;;;1.60;69.30;;;;;;5073285;28;20024;-68
2021/04/10 00:03:43;;;;;;;257.90;118.97;;;1.60;69.60;;;;;;5086532;28;20051;-68
2021/04/10 00:06:09;;;;;;;252.02;121.22;;;1.60;69.60;;;;;;5092488;28;20127;-68
2021/04/10 00:08:35;;;;;;;260.38;122.43;;;1.60;69.90;;;;;;5094463;28;20031;-68
2021/04/10 00:11:00;;;;;;;248.63;116.28;;;1.60;70.20;;;;;;5093934;28;20145;-68
2021/04/10 00:13:27;;;;;;;258.08;126.95;;;1.60;70.20;;;;;;5093694;28;20498;-67
2021/04/10 00:15:53;;;;;;;302.05;141.48;;;1.50;70.20;;;;;;5093924;28;20024;-69
2021/04/10 00:18:18;;;;;;;286.42;138.30;;;1.50;70.30;;;;;;5094031;28;20365;-68
2021/04/10 00:20:44;;;;;;;267.83;129.18;;;1.50;70.50;;;;;;5094012;28;20030;-68
2021/04/10 00:23:10;;;;;;;275.88;130.48;;;1.60;70.60;;;;;;5092066;28;20111;-68
2021/04/10 00:25:36;;;;;;;257.85;123.88;;;1.50;70.60;;;;;;5094468;28;20048;-68
2021/04/10 00:28:02;;;;;;;257.50;127.45;;;1.50;70.90;;;;;;5093735;28;20070;-68
2021/04/10 00:30:27;;;;;;;185.57;89.85;;;1.60;71.60;;;;;;5093493;28;20024;-68
2021/04/10 00:32:53;;;;;;;187.63;91.35;;;1.70;71.30;;;;;;5093598;28;20020;-79
2021/04/10 00:35:19;;;;;;;180.98;88.63;;;1.70;71.20;;;;;;5093345;28;20039;-71
2021/04/10 00:37:44;;;;;;;176.73;83.18;;;1.80;71.20;;;;;;5093598;28;20046;-68
2021/04/10 00:40:11;;;;;;;168.88;80.07;;;1.90;71.30;;;;;;5093805;28;20446;-68
2021/04/10 00:42:37;;;;;;;157.57;80.68;;;2.00;71.30;;;;;;5092972;28;20024;-69
2021/04/10 00:45:05;;;;;;;252.15;124.82;;;2.10;71.30;;;;;;5075928;28;20024;-68
2021/04/10 00:47:30;;;;;;;206.25;102.85;;;2.20;71.50;;;;;;5076980;28;20454;-68
2021/04/10 00:49:56;;;;;;;208.63;101.13;;;2.20;71.20;;;;;;5081865;28;20020;-68
2021/04/10 00:52:22;;;;;;;188.18;94.80;;;2.20;70.80;;;;;;5078864;28;20025;-68
2021/04/10 00:54:50;;;;;;;178.48;87.15;;;2.00;70.30;;;;;;5087565;28;20024;-68
2021/04/10 00:57:17;;;;;;;169.30;86.93;;;1.90;70.70;;;;;;5079386;28;20458;-68
2021/04/10 00:59:44;;;;;;;165.57;84.22;;;1.70;70.90;;;;;;5093352;28;20347;-68
2021/04/10 01:02:10;;;;;;;166.35;80.72;;;1.70;71.20;;;;;;5078806;28;20012;-68
2021/04/10 01:04:35;;;;;;;196.55;90.47;;;1.60;71.40;;;;;;5093236;28;20016;-68
2021/04/10 01:07:02;;;;;;;167.65;78.18;;;1.50;71.60;;;;;;5092807;28;20040;-68
2021/04/10 01:09:28;;;;;;;150.52;73.55;;;1.50;71.80;;;;;;5092062;28;20479;-68
2021/04/10 01:12:24;;;;;;;142.00;70.72;;;1.40;71.80;;;;;;5089868;28;20122;-69
2021/04/10 01:14:59;;;;;;;155.27;72.90;;;1.40;72.10;;;;;;5081016;28;20028;-68
2021/04/10 01:17:38;;;;;;;122.43;59.28;;;1.40;72.10;;;;;;5073373;28;20343;-68
2021/04/10 01:20:28;;;;;;;110.22;54.33;;;1.30;72.20;;;;;;5084366;28;20024;-68
2021/04/10 01:23:35;;;;;;;132.05;61.97;;;1.20;72.30;;;;;;5088879;28;20024;-77
2021/04/10 01:26:00;;;;;;;138.00;68.00;;;1.20;72.50;;;;;;5092522;28;20012;-68
2021/04/10 01:28:54;;;;;;;125.40;61.20;;;1.20;72.60;;;;;;5093170;28;20480;-68
2021/04/10 01:31:25;;;;;;;105.43;53.28;;;1.20;72.90;;;;;;5092425;28;20090;-70
2021/04/10 01:34:00;;;;;;;101.03;52.20;;;1.10;72.60;;;;;;5092746;28;20458;-68
2021/04/10 01:36:29;;;;;;;103.05;49.15;;;1.10;72.70;;;;;;5071469;28;20017;-68
2021/04/10 01:38:56;;;;;;;118.18;58.50;;;1.00;72.80;;;;;;5084869;28;20020;-68
2021/04/10 01:41:23;;;;;;;119.85;55.25;;;1.00;72.80;;;;;;5092448;28;20019;-68
2021/04/10 01:43:51;;;;;;;97.18;48.38;;;1.00;73.00;;;;;;5080721;28;20499;-69
2021/04/10 01:46:19;;;;;;;119.13;58.83;;;1.00;73.10;;;;;;5092233;28;20500;-69
2021/04/10 01:48:46;;;;;;;98.10;47.17;;;1.00;73.30;;;;;;5093151;28;20040;-69
2021/04/10 01:51:14;;;;;;;115.55;53.92;;;0.90;73.40;;;;;;5091834;28;20028;-70
2021/04/10 01:53:41;;;;;;;82.65;43.33;;;0.90;73.90;;;;;;5078121;28;20020;-69
2021/04/10 01:56:08;;;;;;;95.60;45.45;;;0.90;74.00;;;;;;5083892;28;20020;-69
2021/04/10 01:58:36;;;;;;;98.95;48.80;;;0.90;73.90;;;;;;5092460;28;20076;-69
2021/04/10 02:01:04;;;;;;;86.78;43.75;;;0.80;73.80;;;;;;5092403;28;20498;-73
2021/04/10 02:03:31;;;;;;;86.22;42.67;;;0.80;73.80;;;;;;5090393;28;20031;-69
2021/04/10 02:05:57;;;;;;;89.65;45.70;;;0.80;73.90;;;;;;5091478;28;20481;-69
2021/04/10 02:08:25;;;;;;;88.20;43.20;;;0.80;73.80;;;;;;5090634;28;20031;-69
2021/04/10 02:10:52;;;;;;;98.88;46.75;;;0.70;73.80;;;;;;5092180;28;20025;-69
2021/04/10 02:13:19;;;;;;;105.45;45.22;;;0.70;73.90;;;;;;5077841;28;20021;-70
2021/04/10 02:15:45;;;;;;;115.07;52.47;;;0.70;73.90;;;;;;5092539;28;20024;-69
2021/04/10 02:18:11;;;;;;;103.72;48.85;;;0.60;73.90;;;;;;5092524;28;20024;-69
2021/04/10 02:20:37;;;;;;;103.95;49.00;;;0.50;74.00;;;;;;5088014;28;20051;-69
2021/04/10 02:23:03;;;;;;;129.93;58.65;;;0.40;74.20;;;;;;5075105;28;20044;-69
2021/04/10 02:25:30;;;;;;;141.15;66.10;;;0.40;74.50;;;;;;5089081;28;20074;-69
2021/04/10 02:27:56;;;;;;;132.57;60.83;;;0.40;74.80;;;;;;5092172;28;20040;-69
2021/04/10 02:30:23;;;;;;;118.22;55.25;;;0.40;75.10;;;;;;5092193;28;20027;-69
2021/04/10 02:32:56;;;;;;;123.28;57.35;;;0.50;75.50;;;;;;5092552;28;20024;-67
2021/04/10 02:35:33;;;;;;;134.90;58.50;;;0.50;75.50;;;;;;5092479;28;20027;-68
2021/04/10 02:37:59;;;;;;;130.48;57.97;;;0.60;75.50;;;;;;5088194;28;20098;-67
2021/04/10 02:40:31;;;;;;;125.68;55.13;;;0.60;75.20;;;;;;5095330;28;20454;-67
2021/04/10 02:42:58;;;;;;;153.88;59.70;;;0.60;75.10;;;;;;5095732;28;20024;-68
2021/04/10 02:45:26;;;;;;;130.35;58.50;;;0.50;75.30;;;;;;5096197;28;20042;-67
2021/04/10 02:47:56;;;;;;;143.05;57.22;;;0.60;75.50;;;;;;5090567;28;20062;-67
2021/04/10 02:50:23;;;;;;;153.57;59.65;;;0.60;75.30;;;;;;5103030;28;20109;-67
2021/04/10 02:52:52;;;;;;;140.30;57.47;;;0.60;75.00;;;;;;5081779;28;20051;-67
2021/04/10 02:55:24;;;;;;;128.93;58.38;;;0.60;75.10;;;;;;5085414;28;20071;-67
2021/04/10 02:57:52;;;;;;;118.50;56.17;;;0.60;75.60;;;;;;5095697;28;20479;-67
2021/04/10 03:00:19;;;;;;;141.02;60.45;;;0.70;75.90;;;;;;5081382;28;20446;-67
2021/04/10 03:02:45;;;;;;;136.32;60.30;;;0.80;75.90;;;;;;5091741;28;20032;-67
2021/04/10 03:05:12;;;;;;;117.63;54.95;;;0.80;75.70;;;;;;5093659;28;20489;-69
2021/04/10 03:07:45;;;;;;;111.22;54.53;;;0.80;75.80;;;;;;5095605;28;20028;-67
2021/04/10 03:10:15;;;;;;;120.15;55.72;;;0.90;76.20;;;;;;5095266;28;20028;-69
2021/04/10 03:12:43;;;;;;;103.40;53.17;;;1.00;76.30;;;;;;5092964;28;20024;-68
2021/04/10 03:15:12;;;;;;;113.47;54.00;;;1.10;76.30;;;;;;5094902;28;20024;-67
2021/04/10 03:17:39;;;;;;;107.00;50.45;;;1.10;76.30;;;;;;5095014;28;20012;-68
2021/04/10 03:20:10;;;;;;;104.30;50.83;;;1.20;76.20;;;;;;5079593;28;20044;-70
2021/04/10 03:22:36;;;;;;;117.35;54.72;;;1.30;76.30;;;;;;5088365;28;20031;-68
2021/04/10 03:25:02;;;;;;;110.22;52.63;;;1.30;76.20;;;;;;5087826;28;20028;-68
2021/04/10 03:27:28;;;;;;;118.07;55.05;;;1.30;76.20;;;;;;5095138;28;20101;-68
2021/04/10 03:29:54;;;;;;;108.82;52.30;;;1.40;76.50;;;;;;5088723;28;20527;-67
2021/04/10 03:32:20;;;;;;;94.82;47.60;;;1.60;77.00;;;;;;5094740;28;20094;-68
2021/04/10 03:34:47;;;;;;;107.82;55.45;;;1.80;77.40;;;;;;5095511;28;20351;-68
2021/04/10 03:37:13;;;;;;;127.97;60.83;;;2.10;77.30;;;;;;5094697;28;20028;-68
2021/04/10 03:39:38;;;;;;;130.15;64.43;;;2.20;76.90;;;;;;5087673;28;20451;-68
2021/04/10 03:42:06;;;;;;;153.77;75.20;;;2.40;76.60;;;;;;5088033;28;20028;-67
2021/04/10 03:44:32;;;;;;;125.88;61.42;;;2.40;75.90;;;;;;5094314;28;20074;-67
2021/04/10 03:46:58;;;;;;;116.68;58.90;;;2.60;76.00;;;;;;5094640;28;20456;-70
2021/04/10 03:49:23;;;;;;;129.32;62.92;;;2.80;76.40;;;;;;5093611;28;20053;-68
2021/04/10 03:51:49;;;;;;;145.30;69.25;;;3.20;76.50;;;;;;5088978;28;20382;-68
2021/04/10 03:54:15;;;;;;;155.18;73.18;;;3.50;76.00;;;;;;5086179;28;20023;-69
2021/04/10 03:56:40;;;;;;;130.35;71.93;;;3.80;75.30;;;;;;5094034;28;20020;-68
2021/04/10 03:59:06;;;;;;;139.18;69.13;;;4.10;74.50;;;;;;5094120;28;20055;-69
2021/04/10 04:01:32;;;;;;;131.93;66.43;;;4.40;74.20;;;;;;5094160;28;20024;-69
2021/04/10 04:03:57;;;;;;;131.85;60.45;;;4.70;73.80;;;;;;5094540;28;20020;-69
2021/04/10 04:06:23;;;;;;;121.13;59.53;;;5.10;73.30;;;;;;5093000;28;20130;-69
2021/04/10 04:08:49;;;;;;;124.22;62.55;;;5.40;72.60;;;;;;5093861;28;20381;-69
2021/04/10 04:11:14;;;;;;;110.60;58.22;;;5.80;71.80;;;;;;5094290;28;20024;-69
2021/04/10 04:13:40;;;;;;;118.40;62.10;;;6.10;71.00;;;;;;5094097;28;20077;-73
2021/04/10 04:16:06;;;;;;;117.78;62.28;;;6.40;70.40;;;;;;5087104;28;20044;-70
2021/04/10 04:18:31;;;;;;;106.03;63.03;;;6.80;69.70;;;;;;5094354;28;20028;-70
2021/04/10 04:20:57;;;;;;;119.65;61.50;;;7.20;69.30;;;;;;5086527;28;20075;-70
2021/04/10 04:23:23;;;;;;;106.22;59.92;;;7.60;67.70;;;;;;5087734;28;20023;-70
2021/04/10 04:25:48;;;;;;;101.65;58.80;;;7.80;66.50;;;;;;5094302;28;20020;-70
2021/04/10 04:28:14;;;;;;;106.82;63.25;;;8.20;65.80;;;;;;5093644;28;20354;-70
2021/04/10 04:30:40;;;;;;;113.57;64.57;;;8.50;64.20;;;;;;5083201;28;20028;-70
2021/04/10 04:33:05;;;;;;;124.75;67.88;;;8.70;63.10;;;;;;5092318;28;20347;-70
2021/04/10 04:35:31;;;;;;;115.68;65.35;;;8.90;62.30;;;;;;5092895;28;20061;-79
2021/04/10 04:37:57;;;;;;;105.38;62.47;;;9.10;61.70;;;;;;5092408;28;20031;-70
2021/04/10 04:40:22;;;;;;;100.00;60.70;;;9.30;61.00;;;;;;5082765;28;20378;-70
2021/04/10 04:42:48;;;;;;;102.05;59.20;;;9.40;60.60;;;;;;5090887;28;20024;-71
2021/04/10 04:45:14;;;;;;;100.03;60.22;;;9.50;60.30;;;;;;5093050;28;20868;-68
2021/04/10 04:47:39;;;;;;;93.45;57.67;;;9.70;59.70;;;;;;5089993;28;20028;-68
2021/04/10 04:50:06;;;;;;;106.18;60.83;;;9.90;59.10;;;;;;5093342;28;20375;-69
2021/04/10 04:52:32;;;;;;;92.32;57.83;;;10.20;58.20;;;;;;5089115;28;20024;-69
2021/04/10 04:54:58;;;;;;;89.88;56.13;;;10.40;57.50;;;;;;5092738;28;20045;-69
2021/04/10 04:57:23;;;;;;;92.35;58.75;;;10.80;56.90;;;;;;5091951;28;20020;-69
2021/04/10 04:59:49;;;;;;;93.40;56.75;;;10.80;56.00;;;;;;5089026;28;20024;-69
2021/04/10 05:02:15;;;;;;;95.82;55.67;;;11.00;55.60;;;;;;5088005;28;20027;-70
2021/04/10 05:04:41;;;;;;;92.25;56.40;;;11.20;54.90;;;;;;5093321;28;20020;-70
2021/04/10 05:07:07;;;;;;;89.35;56.17;;;11.50;54.80;;;;;;5080470;28;20097;-71
2021/04/10 05:09:33;;;;;;;87.70;54.03;;;11.90;54.40;;;;;;5092087;28;20016;-71
2021/04/10 05:11:59;;;;;;;86.80;55.13;;;12.20;53.70;;;;;;5092770;28;20059;-69
2021/04/10 05:14:24;;;;;;;84.13;55.70;;;12.50;53.30;;;;;;5092982;28;20024;-70
2021/04/10 05:16:50;;;;;;;86.93;54.15;;;12.80;52.60;;;;;;5092697;28;20027;-69
2021/04/10 05:19:16;;;;;;;87.80;52.70;;;13.20;52.10;;;;;;5091754;28;20161;-69
2021/04/10 05:21:41;;;;;;;80.32;51.33;;;13.60;51.40;;;;;;5093204;28;20076;-69
2021/04/10 05:24:07;;;;;;;75.22;46.42;;;13.90;50.60;;;;;;5091577;28;20016;-70
2021/04/10 05:26:33;;;;;;;68.90;43.58;;;14.30;50.00;;;;;;5092989;28;20038;-70
2021/04/10 05:28:59;;;;;;;65.70;42.22;;;14.70;48.90;;;;;;5091468;28;20441;-70
2021/04/10 05:31:24;;;;;;;67.25;42.67;;;15.00;48.00;;;;;;5092651;28;20019;-69
2021/04/10 05:33:50;;;;;;;67.28;43.40;;;15.30;47.20;;;;;;5090835;28;20073;-68
2021/04/10 05:36:16;;;;;;;77.68;44.78;;;15.80;46.50;;;;;;5093269;28;20023;-70
2021/04/10 05:38:41;;;;;;;73.65;43.33;;;16.20;45.60;;;;;;5080592;28;20052;-69
2021/04/10 05:41:07;;;;;;;80.28;42.65;;;16.50;44.80;;;;;;5091707;28;20070;-69
2021/04/10 05:43:33;;;;;;;64.82;41.08;;;16.60;44.00;;;;;;5092398;28;20062;-70
2021/04/10 05:45:59;;;;;;;61.40;41.00;;;16.90;43.50;;;;;;5092686;28;20073;-70
2021/04/10 05:48:24;;;;;;;67.95;41.67;;;17.00;42.90;;;;;;5091451;28;20032;-70
2021/04/10 05:50:50;;;;;;;61.83;41.13;;;17.10;42.50;;;;;;5089532;28;20074;-71
2021/04/10 05:53:16;;;;;;;61.83;41.45;;;17.20;42.50;;;;;;5084815;28;20028;-73
2021/04/10 05:55:41;;;;;;;67.63;40.80;;;17.40;42.00;;;;;;5091704;28;20431;-71
2021/04/10 05:58:07;;;;;;;62.80;41.80;;;17.60;41.70;;;;;;5091247;28;20028;-72
2021/04/10 06:00:33;;;;;;;75.60;44.60;;;17.70;41.30;;;;;;5091608;28;20089;-76
2021/04/10 06:02:58;;;;;;;67.72;43.13;;;17.80;41.10;;;;;;5087955;28;20042;-81
2021/04/10 06:05:24;;;;;;;111.38;45.03;;;18.10;40.80;;;;;;5090652;28;20040;-77
2021/04/10 06:07:50;;;;;;;64.30;41.72;;;18.30;40.60;;;;;;5092634;28;20028;-77
2021/04/10 06:10:20;;;;;;;64.55;43.30;;;18.60;40.20;;;;;;5091543;28;20020;-79
2021/04/10 06:12:47;;;;;;;53.75;37.50;;;18.90;39.40;;;;;;5093501;28;20477;-79
2021/04/10 06:15:16;;;;;;;49.20;35.65;;;19.10;38.90;;;;;;5094173;28;20377;-74
2021/04/10 06:17:41;;;;;;;52.17;36.45;;;19.30;38.40;;;;;;5096382;28;20057;-73
2021/04/10 06:20:09;;;;;;;44.35;32.17;;;19.50;38.20;;;;;;5095064;28;20106;-72
2021/04/10 06:22:35;;;;;;;43.30;31.92;;;19.60;37.50;;;;;;5093720;28;20229;-74
2021/04/10 06:25:01;;;;;;;45.22;32.95;;;20.00;37.00;;;;;;5095562;28;20087;-75
2021/04/10 06:27:27;;;;;;;45.75;31.08;;;20.50;36.30;;;;;;5095237;28;20161;-75
2021/04/10 06:29:52;;;;;;;49.47;31.35;;;20.60;35.90;;;;;;5096590;28;20024;-75
2021/04/10 06:32:18;;;;;;;35.40;26.30;;;20.60;35.90;;;;;;5096209;28;20035;-75
2021/04/10 06:34:44;;;;;;;45.72;29.42;;;20.40;35.60;;;;;;5096293;28;20546;-75
2021/04/10 06:37:09;;;;;;;36.47;21.15;;;20.60;35.40;;;;;;5096069;28;20024;-75
2021/04/10 06:39:35;;;;;;;27.00;18.98;;;21.00;35.00;;;;;;5095965;28;20016;-75
2021/04/10 06:42:03;;;;;;;33.90;22.30;;;21.00;33.80;;;;;;5094893;28;20016;-74
2021/04/10 06:44:29;;;;;;;27.67;20.73;;;20.90;33.40;;;;;;5094113;28;20012;-75
2021/04/10 06:46:57;;;;;;;33.17;21.50;;;21.10;33.20;;;;;;5094930;28;20074;-79
2021/04/10 06:49:24;;;;;;;30.50;22.00;;;21.00;32.80;;;;;;5095603;28;20366;-75
2021/04/10 06:51:51;;;;;;;25.35;18.30;;;21.10;33.00;;;;;;5095907;28;20034;-75
2021/04/10 06:54:20;;;;;;;26.38;19.88;;;21.30;32.50;;;;;;5095879;28;20357;-75
2021/04/10 06:57:00;;;;;;;29.20;21.40;;;21.50;32.30;;;;;;5095997;28;20054;-75
2021/04/10 06:59:41;;;;;;;28.02;19.50;;;21.80;32.30;;;;;;5095974;28;20016;-75
2021/04/10 07:02:11;;;;;;;25.15;18.65;;;21.80;31.70;;;;;;5097579;28;20107;-75
2021/04/10 07:04:38;;;;;;;27.50;19.52;;;21.80;31.80;;;;;;5095998;28;20462;-75
2021/04/10 07:07:03;;;;;;;21.88;14.43;;;21.90;31.90;;;;;;5094841;28;20054;-74
2021/04/10 07:09:32;;;;;;;23.80;16.90;;;22.30;31.00;;;;;;5083552;28;20407;-75
2021/04/10 07:11:58;;;;;;;22.83;17.75;;;22.30;30.70;;;;;;5092789;28;20023;-75
2021/04/10 07:14:24;;;;;;;31.02;21.85;;;22.20;30.70;;;;;;5095872;28;20074;-75
2021/04/10 07:16:50;;;;;;;24.27;18.25;;;22.50;30.70;;;;;;5095217;28;20024;-75
2021/04/10 07:19:15;;;;;;;22.52;17.75;;;22.90;30.80;;;;;;5094958;28;20019;-74
2021/04/10 07:21:41;;;;;;;27.20;18.55;;;23.30;30.60;;;;;;5095851;28;20020;-74
2021/04/10 07:24:07;;;;;;;27.02;17.60;;;23.50;30.00;;;;;;5082511;28;20206;-81
2021/04/10 07:26:57;;;;;;;29.02;18.33;;;23.40;29.80;;;;;;5094904;28;20104;-87
2021/04/10 07:29:49;;;;;;;24.23;16.75;;;23.50;30.10;;;;;;5078710;28;20023;-75
2021/04/10 07:32:22;;;;;;;56.72;34.20;;;23.50;30.50;;;;;;5092015;28;20081;-91
2021/04/10 07:34:48;;;;;;;50.08;34.08;;;23.70;31.90;;;;;;5092269;28;20026;-73
2021/04/10 07:37:28;;;;;;;50.65;35.35;;;23.80;31.20;;;;;;5090325;28;20032;-77
2021/04/10 07:40:00;;;;;;;50.20;37.13;;;23.60;30.70;;;;;;5091899;28;20500;-76
2021/04/10 07:42:27;;;;;;;44.83;37.05;;;23.60;30.80;;;;;;5091720;28;20028;-80
2021/04/10 07:44:53;;;;;;;49.38;34.40;;;23.60;30.80;;;;;;5084371;28;20103;-83
2021/04/10 07:47:38;;;;;;;56.25;34.65;;;23.60;30.60;;;;;;5086759;28;20097;-76
2021/04/10 07:50:20;;;;;;;52.17;34.58;;;23.50;30.60;;;;;;5092935;28;20028;-76
2021/04/10 07:52:46;;;;;;;64.15;45.78;;;23.50;30.70;;;;;;5077347;28;20054;-78
2021/04/10 07:55:36;;;;;;;44.28;31.95;;;23.40;31.30;;;;;;5085022;28;20447;-77
2021/04/10 07:58:28;;;;;;;47.83;31.92;;;23.40;31.40;;;;;;5086702;28;20035;-77
2021/04/10 08:00:58;;;;;;;54.92;44.35;;;23.70;31.30;;;;;;5094344;28;20020;-84
2021/04/10 08:03:25;;;;;;;45.80;30.77;;;24.10;31.00;;;;;;5094366;28;20092;-76
2021/04/10 08:05:51;;;;;;;61.67;40.47;;;24.20;30.10;;;;;;5094324;28;20514;-76
2021/04/10 08:08:24;;;;;;;55.55;37.92;;;24.30;30.00;;;;;;5094254;28;20111;-76
2021/04/10 08:11:00;;;;;;;45.15;30.60;;;24.50;29.90;;;;;;5094453;28;20024;-75
2021/04/10 08:13:26;;;;;;;43.10;25.17;;;24.40;29.70;;;;;;5077949;28;20481;-75
2021/04/10 08:16:13;;;;;;;39.13;25.17;;;24.40;30.00;;;;;;5094705;28;20024;-75
2021/04/10 08:18:50;;;;;;;39.28;28.85;;;24.50;29.40;;;;;;5091886;28;20035;-75
2021/04/10 08:21:27;;;;;;;40.35;27.95;;;24.50;29.30;;;;;;5083718;28;20016;-75
2021/04/10 08:23:52;;;;;;;105.40;74.70;;;24.60;29.30;;;;;;5094046;28;20016;-74
2021/04/10 08:26:18;;;;;;;95.03;64.05;;;24.20;28.90;;;;;;5085324;28;20031;-74
2021/04/10 08:28:43;;;;;;;45.50;30.23;;;23.60;29.50;;;;;;5089071;28;20449;-75
2021/04/10 08:31:10;;;;;;;44.08;29.90;;;23.50;30.00;;;;;;5094000;28;20103;-74
2021/04/10 08:33:35;;;;;;;37.60;26.65;;;23.20;29.80;;;;;;5094294;28;20048;-74
2021/04/10 08:36:08;;;;;;;38.33;28.73;;;22.40;30.00;;;;;;5093631;28;20051;-75
2021/04/10 08:38:35;;;;;;;43.55;33.40;;;22.10;31.00;;;;;;5093840;28;20143;-76
2021/04/10 08:41:04;;;;;;;39.08;31.83;;;22.20;31.40;;;;;;5093492;28;20073;-75
2021/04/10 08:43:35;;;;;;;49.97;39.10;;;22.30;31.60;;;;;;5093954;28;20027;-75
2021/04/10 08:46:03;;;;;;;36.08;28.70;;;22.30;31.50;;;;;;5093150;28;20016;-74
2021/04/10 08:48:29;;;;;;;45.20;36.72;;;21.90;31.20;;;;;;5093706;28;20036;-76
2021/04/10 08:50:58;;;;;;;54.90;40.20;;;21.90;31.50;;;;;;5091631;28;20523;-76
2021/04/10 08:53:30;;;;;;;37.40;28.55;;;22.30;31.90;;;;;;5076819;28;20012;-75
2021/04/10 08:55:56;;;;;;;40.97;36.70;;;22.70;31.20;;;;;;5093928;28;20026;-75
2021/04/10 08:58:29;;;;;;;37.45;31.70;;;23.10;31.20;;;;;;5079286;28;20093;-75
2021/04/10 09:01:00;;;;;;;32.25;24.92;;;23.20;30.00;;;;;;5081557;28;20112;-79
2021/04/10 09:03:44;;;;;;;50.15;40.47;;;23.10;29.90;;;;;;5076024;28;20020;-76
2021/04/10 09:06:10;;;;;;;72.63;58.45;;;23.20;30.50;;;;;;5093258;28;20048;-75
2021/04/10 09:08:36;;;;;;;43.85;34.55;;;23.30;30.00;;;;;;5093240;28;20030;-75
2021/04/10 09:11:07;;;;;;;34.63;28.77;;;23.00;29.70;;;;;;5093391;28;20024;-74
2021/04/10 09:13:45;;;;;;;43.50;30.67;;;22.40;29.70;;;;;;5077701;28;20103;-74
2021/04/10 09:16:29;;;;;;;35.53;27.20;;;21.80;30.60;;;;;;5094159;28;20056;-74
2021/04/10 09:19:03;;;;;;;38.45;30.88;;;20.90;31.30;;;;;;5093084;28;20368;-83
2021/04/10 09:21:40;;;;;;;31.17;23.67;;;20.60;32.80;;;;;;5093279;28;20016;-75
2021/04/10 09:24:29;;;;;;;47.92;38.63;;;20.50;32.70;;;;;;5077665;28;20110;-76
2021/04/10 09:26:56;;;;;;;30.83;26.05;;;20.80;32.30;;;;;;5092586;28;20016;-77
2021/04/10 09:29:23;;;;;;;37.72;26.42;;;20.90;32.00;;;;;;5093389;28;20091;-75
2021/04/10 09:32:00;;;;;;;29.35;25.08;;;21.20;32.20;;;;;;5092081;28;20454;-74
2021/04/10 09:34:46;;;;;;;32.05;26.80;;;21.10;30.70;;;;;;5079284;28;20020;-75
2021/04/10 09:37:32;;;;;;;27.27;22.02;;;21.00;31.40;;;;;;5078678;28;20564;-75
2021/04/10 09:40:02;;;;;;;29.63;24.85;;;21.20;31.10;;;;;;5077715;28;20024;-75
2021/04/10 09:45:14;;;;;;;26.88;22.27;;;21.60;30.20;;;;;;5092666;28;20078;-75
2021/04/10 09:47:58;;;;;;;14.40;10.38;;;21.70;30.00;;;;;;5095055;28;20465;-75
2021/04/10 09:50:35;;;;;;;12.93;9.95;;;21.60;29.20;;;;;;5097416;28;20020;-74
2021/04/10 09:53:03;;;;;;;10.63;8.32;;;21.30;28.80;;;;;;5082425;28;20107;-74
2021/04/10 09:55:31;;;;;;;13.68;9.18;;;21.00;28.60;;;;;;5097126;28;20016;-74
2021/04/10 09:57:58;;;;;;;11.82;8.65;;;20.90;28.80;;;;;;5097416;28;20364;-74
2021/04/10 10:00:27;;;;;;;15.45;8.63;;;20.90;28.80;;;;;;5083024;28;20411;-74
2021/04/10 10:02:53;;;;;;;16.52;9.80;;;20.80;28.60;;;;;;5096908;28;20016;-74
2021/04/10 10:05:20;;;;;;;12.82;9.32;;;20.50;28.60;;;;;;5096743;28;20072;-76
2021/04/10 10:07:47;;;;;;;17.38;15.05;;;20.30;29.00;;;;;;5096880;28;20032;-74
2021/04/10 10:10:13;;;;;;;32.15;28.75;;;20.60;29.50;;;;;;5096454;28;20066;-74
2021/04/10 10:12:39;;;;;;;25.40;22.67;;;20.80;29.20;;;;;;5096908;28;20066;-75
2021/04/10 10:15:23;;;;;;;17.38;15.30;;;20.90;29.50;;;;;;5096446;28;20016;-74
2021/04/10 10:17:49;;;;;;;18.27;14.18;;;21.00;29.90;;;;;;5097076;28;20056;-75
2021/04/10 10:20:16;;;;;;;11.98;8.48;;;21.00;29.20;;;;;;5096484;28;20469;-74
2021/04/10 10:22:42;;;;;;;11.43;7.85;;;21.00;28.80;;;;;;5096456;28;20102;-74
2021/04/10 10:25:09;;;;;;;10.40;8.13;;;21.00;28.70;;;;;;5096521;28;20020;-76
2021/04/10 10:27:38;;;;;;;12.10;8.25;;;20.80;28.70;;;;;;5080471;28;20020;-73
2021/04/10 10:30:21;;;;;;;11.18;8.18;;;20.70;28.90;;;;;;5096167;28;20020;-73
2021/04/10 10:32:48;;;;;;;11.30;8.52;;;20.50;29.10;;;;;;5082496;28;20027;-74
2021/04/10 10:35:17;;;;;;;10.98;7.65;;;20.40;29.50;;;;;;5094345;28;20115;-74
2021/04/10 10:37:49;;;;;;;10.25;7.25;;;20.50;29.30;;;;;;5096095;28;20074;-74
2021/04/10 10:40:23;;;;;;;10.32;7.95;;;20.50;28.80;;;;;;5096305;28;20020;-74
2021/04/10 10:43:09;;;;;;;10.90;7.40;;;20.30;29.10;;;;;;5096057;28;20102;-74
2021/04/10 10:45:47;;;;;;;12.73;7.35;;;20.30;29.20;;;;;;5095956;28;20024;-74
2021/04/10 10:48:25;;;;;;;8.25;6.18;;;20.60;29.60;;;;;;5084003;28;20118;-74
2021/04/10 10:51:02;;;;;;;10.48;7.85;;;20.80;29.00;;;;;;5095898;28;20024;-75
2021/04/10 10:53:35;;;;;;;11.93;8.55;;;20.80;28.90;;;;;;5081919;28;20450;-74
2021/04/10 10:56:12;;;;;;;15.02;11.65;;;20.80;29.10;;;;;;5095884;28;20016;-74
2021/04/10 10:58:41;;;;;;;11.32;10.07;;;21.00;29.40;;;;;;5095586;28;20024;-73
2021/04/10 11:01:23;;;;;;;12.52;10.25;;;21.10;28.90;;;;;;5095564;28;20020;-74
2021/04/10 11:03:53;;;;;;;10.82;6.85;;;21.10;28.70;;;;;;5082191;28;20020;-78
2021/04/10 11:06:26;;;;;;;10.30;8.77;;;20.90;28.50;;;;;;5094499;28;20051;-74
2021/04/10 11:08:52;;;;;;;12.35;9.02;;;20.70;28.70;;;;;;5095613;28;20032;-74
2021/04/10 11:11:21;;;;;;;14.90;8.50;;;20.60;28.60;;;;;;5095461;28;20024;-73
2021/04/10 11:13:48;;;;;;;13.02;10.70;;;20.40;28.60;;;;;;5095471;28;20126;-74
2021/04/10 11:16:16;;;;;;;13.98;12.45;;;20.40;29.20;;;;;;5095754;28;20481;-74
2021/04/10 11:18:43;;;;;;;10.82;8.77;;;20.40;28.90;;;;;;5095296;28;20069;-74
2021/04/10 11:21:25;;;;;;;9.02;6.63;;;20.50;28.80;;;;;;5095106;28;20474;-74
2021/04/10 11:23:57;;;;;;;8.07;5.50;;;20.30;28.20;;;;;;5081103;28;20066;-74
2021/04/10 11:26:40;;;;;;;6.97;5.05;;;20.20;27.60;;;;;;5095320;28;20022;-74
2021/04/10 11:29:19;;;;;;;8.82;6.72;;;19.70;27.30;;;;;;5094801;28;20024;-75
2021/04/10 11:32:02;;;;;;;8.05;6.15;;;19.40;28.30;;;;;;5095624;28;20343;-74
2021/04/10 11:34:29;;;;;;;8.15;5.93;;;19.50;28.50;;;;;;5095367;28;20354;-75
2021/04/10 11:36:56;;;;;;;7.18;5.38;;;19.40;28.20;;;;;;5080834;28;20028;-74
2021/04/10 11:39:22;;;;;;;7.13;5.88;;;19.30;28.10;;;;;;5093724;28;20331;-73
2021/04/10 11:41:48;;;;;;;8.18;6.18;;;19.20;28.40;;;;;;5094970;28;20095;-73
2021/04/10 11:44:15;;;;;;;7.13;4.82;;;19.10;28.30;;;;;;5094957;28;20038;-73
2021/04/10 11:46:41;;;;;;;7.25;5.15;;;18.70;28.00;;;;;;5095499;28;20071;-74
2021/04/10 11:49:07;;;;;;;8.50;5.88;;;18.40;28.10;;;;;;5094471;28;20067;-74
2021/04/10 11:51:32;;;;;;;8.27;6.10;;;17.80;28.30;;;;;;5091882;28;20074;-74
2021/04/10 11:53:58;;;;;;;9.98;6.80;;;17.10;29.00;;;;;;5083738;28;20024;-74
2021/04/10 11:56:31;;;;;;;7.03;4.70;;;16.60;29.30;;;;;;5094244;28;20078;-74
2021/04/10 11:59:04;;;;;;;10.73;6.05;;;16.10;29.10;;;;;;5094386;28;20348;-74
2021/04/10 12:01:31;;;;;;;10.38;6.50;;;15.80;29.30;;;;;;5094448;28;20024;-75
2021/04/10 12:03:59;;;;;;;12.40;7.13;;;15.40;29.70;;;;;;5093297;28;20065;-74
2021/04/10 12:06:38;;;;;;;12.27;7.78;;;15.00;30.40;;;;;;5079745;28;20442;-73
2021/04/10 12:09:09;;;;;;;13.20;8.00;;;14.70;31.10;;;;;;5081428;28;20039;-74
2021/04/10 12:11:37;;;;;;;13.23;7.35;;;14.40;31.80;;;;;;5094320;28;20044;-75
2021/04/10 12:14:07;;;;;;;9.70;5.97;;;14.20;32.20;;;;;;5094824;28;20016;-73
2021/04/10 12:16:37;;;;;;;11.48;7.45;;;14.10;32.40;;;;;;5094719;28;20024;-74
2021/04/10 12:19:07;;;;;;;11.80;7.53;;;13.90;32.60;;;;;;5093882;28;20020;-74
2021/04/10 12:21:33;;;;;;;11.98;8.07;;;13.60;33.10;;;;;;5093269;28;20065;-73
2021/04/10 12:23:59;;;;;;;11.07;7.35;;;13.60;34.20;;;;;;5094115;28;20012;-74
2021/04/10 12:26:25;;;;;;;13.57;8.23;;;13.50;34.00;;;;;;5094443;28;20024;-74
2021/04/10 12:28:51;;;;;;;12.70;8.48;;;13.50;34.30;;;;;;5093912;28;20043;-73
2021/04/10 12:31:17;;;;;;;13.10;8.73;;;13.40;35.10;;;;;;5093853;28;20092;-73
2021/04/10 12:33:44;;;;;;;11.25;8.32;;;13.30;34.80;;;;;;5093899;28;20142;-75
2021/04/10 12:36:10;;;;;;;13.68;8.60;;;13.30;35.20;;;;;;5093969;28;20020;-72
2021/04/10 12:38:36;;;;;;;10.55;7.70;;;13.30;35.40;;;;;;5094513;28;20100;-73
2021/04/10 12:41:03;;;;;;;13.93;8.68;;;13.30;35.50;;;;;;5078067;28;20062;-74